Terminal Aerodrome Forecast
Issued by NWS Green Bay, WI

Home | Current Version | Previous Version | Text Only | Print | Product List | Glossary Off
Versions: 1 2 3 4 5 6 7 8 9 10 11 12 13 14 15 16 17

000
FTUS43 KGRB 230520
TAFGRB
TAF
KGRB 230520Z 2306/2406 VRB03KT P6SM SCT010 OVC060
      TEMPO 2306/2308 4SM -SHRA BR BKN010
     FM230900 31003KT 6SM BR BKN090
     FM231200 29008KT P6SM SCT090
     FM231500 28013G22KT P6SM SCT045
     FM232200 29012G21KT P6SM SCT060
     FM240100 29006KT P6SM SCT080=

USA.gov is the U.S. government's official web portal to all federal, state and local government web resources and services.